Time;durP1;ratioP1;P1;durP2;ratioP2;P2;SDS_P1;SDS_P2;PMS_P1;PMS_P2;Temp;Humidity;BMP_temperature;BMP_pressure;BME280_temperature;BME280_humidity;BME280_pressure;Samples;Min_cycle;Max_cycle;Signal;HPM_P1;HPM_P2
2023/08/30 00:00:41;;;;;;;11.32;10.23;;;13.20;99.90;;;;;;5076460;28;20036;-67
2023/08/30 00:03:07;;;;;;;10.43;9.63;;;13.20;99.90;;;;;;5099592;28;20090;-67
2023/08/30 00:05:33;;;;;;;11.00;10.10;;;13.10;99.90;;;;;;5080890;28;20118;-67
2023/08/30 00:07:59;;;;;;;10.88;9.95;;;13.10;99.90;;;;;;5079427;28;20044;-67
2023/08/30 00:10:24;;;;;;;9.25;8.35;;;13.10;99.90;;;;;;5078861;28;20040;-67
2023/08/30 00:12:50;;;;;;;10.75;9.73;;;13.10;99.90;;;;;;5080339;28;20040;-67
2023/08/30 00:15:16;;;;;;;13.02;11.82;;;13.10;99.90;;;;;;5094348;28;20557;-67
2023/08/30 00:17:42;;;;;;;12.88;11.75;;;13.00;99.90;;;;;;5093990;28;20039;-67
2023/08/30 00:20:11;;;;;;;12.52;11.52;;;13.00;99.90;;;;;;5079821;28;20100;-67
2023/08/30 00:22:37;;;;;;;11.32;10.23;;;13.00;99.90;;;;;;5097168;28;20048;-67
2023/08/30 00:25:03;;;;;;;12.32;11.23;;;13.10;99.90;;;;;;5096520;28;20044;-67
2023/08/30 00:27:29;;;;;;;11.80;10.80;;;13.00;99.90;;;;;;5061327;28;20040;-67
2023/08/30 00:29:54;;;;;;;11.75;10.68;;;13.00;99.90;;;;;;5078983;28;20078;-67
2023/08/30 00:32:21;;;;;;;12.35;10.20;;;13.00;99.90;;;;;;5097204;28;20024;-67
2023/08/30 00:34:50;;;;;;;12.25;10.05;;;13.00;99.90;;;;;;5095465;28;20040;-67
2023/08/30 00:37:15;;;;;;;12.45;9.90;;;13.00;99.90;;;;;;5098712;28;20069;-67
2023/08/30 00:39:42;;;;;;;12.80;10.27;;;13.00;99.90;;;;;;5097613;28;20048;-67
2023/08/30 00:42:07;;;;;;;9.75;8.80;;;13.10;99.90;;;;;;5059835;28;20048;-67
2023/08/30 00:44:36;;;;;;;10.45;9.55;;;13.10;99.90;;;;;;5073286;28;20360;-67
2023/08/30 00:47:03;;;;;;;9.93;9.07;;;13.00;99.90;;;;;;5079052;28;20047;-67
2023/08/30 00:49:32;;;;;;;10.52;9.70;;;13.00;99.90;;;;;;5094433;28;20067;-67
2023/08/30 00:52:05;;;;;;;9.65;8.85;;;13.00;99.90;;;;;;5077173;28;20036;-67
2023/08/30 00:54:33;;;;;;;10.10;9.23;;;12.90;99.90;;;;;;5112289;28;20043;-67
2023/08/30 00:57:01;;;;;;;9.68;8.43;;;13.00;99.90;;;;;;5056339;28;20111;-67
2023/08/30 00:59:27;;;;;;;9.73;8.85;;;13.00;99.90;;;;;;5093619;28;20135;-67
2023/08/30 01:01:53;;;;;;;9.70;8.80;;;13.00;99.90;;;;;;5095411;28;20090;-67
2023/08/30 01:04:19;;;;;;;9.00;8.10;;;13.00;99.90;;;;;;5075286;28;20036;-67
2023/08/30 01:06:45;;;;;;;9.38;8.50;;;13.20;99.90;;;;;;5073989;28;20175;-67
2023/08/30 01:09:11;;;;;;;9.10;8.35;;;13.10;99.90;;;;;;5093786;28;20139;-67
2023/08/30 01:12:02;;;;;;;10.05;9.02;;;13.10;99.90;;;;;;5078285;28;20047;-67
2023/08/30 01:14:40;;;;;;;9.48;8.73;;;13.10;99.90;;;;;;5093409;28;20417;-67
2023/08/30 01:17:08;;;;;;;8.85;7.97;;;13.10;99.90;;;;;;5097027;28;20525;-67
2023/08/30 01:19:43;;;;;;;9.27;8.48;;;13.10;99.90;;;;;;5078977;28;20039;-67
2023/08/30 01:22:29;;;;;;;9.20;8.40;;;13.10;99.90;;;;;;5099783;28;20043;-67
2023/08/30 01:25:09;;;;;;;9.63;8.75;;;13.10;99.90;;;;;;5094696;28;20042;-67
2023/08/30 01:27:36;;;;;;;11.65;9.50;;;13.10;99.90;;;;;;5097978;28;20036;-67
2023/08/30 01:30:05;;;;;;;8.77;7.97;;;13.10;99.90;;;;;;5093144;28;20055;-67
2023/08/30 01:32:33;;;;;;;9.77;8.93;;;13.00;99.90;;;;;;5098280;28;20040;-67
2023/08/30 01:35:00;;;;;;;9.63;8.73;;;13.00;99.90;;;;;;5078073;28;20790;-67
2023/08/30 01:37:27;;;;;;;9.90;8.90;;;13.00;99.90;;;;;;5102525;28;20042;-67
2023/08/30 01:39:54;;;;;;;9.23;8.30;;;13.00;99.90;;;;;;5081206;28;20115;-67
2023/08/30 01:42:22;;;;;;;9.27;8.38;;;12.90;99.90;;;;;;5080735;28;20051;-67
2023/08/30 01:44:49;;;;;;;9.20;8.38;;;12.90;99.90;;;;;;5100128;28;20043;-67
2023/08/30 01:47:16;;;;;;;10.35;9.32;;;13.00;99.90;;;;;;5081809;28;20050;-67
2023/08/30 01:49:43;;;;;;;10.02;8.18;;;12.90;99.90;;;;;;5079981;28;20074;-67
2023/08/30 01:52:10;;;;;;;8.90;8.20;;;13.00;99.90;;;;;;5114960;27;20040;-67
2023/08/30 01:54:37;;;;;;;10.30;8.93;;;13.00;99.90;;;;;;5079754;28;20052;-67
2023/08/30 01:57:03;;;;;;;8.50;7.70;;;13.00;99.90;;;;;;5098840;28;20040;-67
2023/08/30 01:59:29;;;;;;;8.82;8.05;;;13.00;99.90;;;;;;5101601;28;20108;-67
2023/08/30 02:01:56;;;;;;;7.95;7.25;;;13.00;99.90;;;;;;5084975;28;20054;-67
2023/08/30 02:04:22;;;;;;;7.65;6.95;;;13.00;99.90;;;;;;5098726;28;20118;-67
2023/08/30 02:07:03;;;;;;;8.18;7.43;;;12.90;99.90;;;;;;5082587;28;20139;-67
2023/08/30 02:09:42;;;;;;;9.13;7.95;;;12.90;99.90;;;;;;5088454;28;20027;-67
2023/08/30 02:12:14;;;;;;;7.85;7.18;;;12.90;99.90;;;;;;5097673;28;20395;-67
2023/08/30 02:14:44;;;;;;;7.90;7.22;;;12.90;99.90;;;;;;5096955;28;20039;-67
2023/08/30 02:17:11;;;;;;;9.52;8.45;;;12.90;99.90;;;;;;5066850;28;20048;-67
2023/08/30 02:19:37;;;;;;;9.05;8.15;;;12.90;99.90;;;;;;5100313;28;20040;-67
2023/08/30 02:22:03;;;;;;;8.52;7.65;;;12.90;99.90;;;;;;5100705;28;20182;-67
2023/08/30 02:24:28;;;;;;;8.68;7.78;;;13.00;99.90;;;;;;5081925;28;20157;-67
2023/08/30 02:26:54;;;;;;;9.00;7.80;;;12.90;99.90;;;;;;5113250;27;20395;-67
2023/08/30 02:29:19;;;;;;;7.70;7.00;;;13.00;99.90;;;;;;5098778;28;20036;-67
2023/08/30 02:31:45;;;;;;;8.40;7.45;;;13.00;99.90;;;;;;5076448;28;20083;-67
2023/08/30 02:34:11;;;;;;;8.98;8.07;;;13.00;99.90;;;;;;5100479;28;20032;-67
2023/08/30 02:36:36;;;;;;;8.20;7.40;;;13.10;99.90;;;;;;5077426;28;20040;-67
2023/08/30 02:39:03;;;;;;;8.00;7.30;;;13.10;99.90;;;;;;5079131;28;20055;-67
2023/08/30 02:41:29;;;;;;;8.00;7.30;;;13.10;99.90;;;;;;5098854;28;20097;-67
2023/08/30 02:43:54;;;;;;;10.23;7.88;;;13.20;99.90;;;;;;5084205;28;20142;-67
2023/08/30 02:46:20;;;;;;;10.25;8.07;;;13.10;99.90;;;;;;5078248;28;20055;-67
2023/08/30 02:48:45;;;;;;;7.88;7.15;;;13.20;99.90;;;;;;5099512;28;20043;-67
2023/08/30 02:51:11;;;;;;;7.88;7.15;;;13.20;99.90;;;;;;5098283;28;20114;-67
2023/08/30 02:53:37;;;;;;;7.35;6.50;;;13.20;99.90;;;;;;5094451;28;20043;-67
2023/08/30 02:56:02;;;;;;;8.88;8.07;;;13.10;99.90;;;;;;5098330;28;20086;-67
2023/08/30 02:58:28;;;;;;;8.00;7.30;;;13.20;99.90;;;;;;5059537;28;20090;-67
2023/08/30 03:00:53;;;;;;;11.10;7.80;;;13.10;99.90;;;;;;5079355;28;20040;-67
2023/08/30 03:03:19;;;;;;;7.75;7.05;;;13.10;99.90;;;;;;5061651;28;20051;-67
2023/08/30 03:05:44;;;;;;;8.48;7.40;;;13.00;99.90;;;;;;5060323;28;20179;-67
2023/08/30 03:08:10;;;;;;;7.55;6.85;;;13.00;99.90;;;;;;5073662;28;20470;-67
2023/08/30 03:10:35;;;;;;;7.30;6.70;;;13.00;99.90;;;;;;5074826;28;20133;-67
2023/08/30 03:13:01;;;;;;;8.57;7.15;;;13.00;99.90;;;;;;5081988;28;20045;-67
2023/08/30 03:15:27;;;;;;;8.10;7.35;;;12.90;99.90;;;;;;5076221;28;20048;-67
2023/08/30 03:17:52;;;;;;;8.38;6.88;;;12.90;99.90;;;;;;5059265;28;20120;-67
2023/08/30 03:20:18;;;;;;;8.30;7.57;;;12.80;99.90;;;;;;5091496;28;20094;-67
2023/08/30 03:22:44;;;;;;;8.07;7.35;;;12.80;99.90;;;;;;5062930;28;20075;-67
2023/08/30 03:25:10;;;;;;;7.78;7.07;;;12.80;99.90;;;;;;5076402;28;20064;-67
2023/08/30 03:27:35;;;;;;;7.32;6.72;;;12.80;99.90;;;;;;5074676;28;20044;-67
2023/08/30 03:30:02;;;;;;;8.93;8.07;;;12.80;99.90;;;;;;5078730;28;20776;-67
2023/08/30 03:32:28;;;;;;;8.35;7.72;;;12.70;99.90;;;;;;5095176;28;20040;-67
2023/08/30 03:34:54;;;;;;;7.30;6.70;;;12.70;99.90;;;;;;5078895;28;20090;-67
2023/08/30 03:37:19;;;;;;;8.73;7.90;;;12.70;99.90;;;;;;5069523;28;20039;-67
2023/08/30 03:39:45;;;;;;;9.60;8.43;;;12.70;99.90;;;;;;5074977;28;20040;-67
2023/08/30 03:42:10;;;;;;;10.60;8.43;;;12.70;99.90;;;;;;5090551;28;20071;-67
2023/08/30 03:44:38;;;;;;;8.77;7.97;;;12.70;99.90;;;;;;5080883;28;20462;-67
2023/08/30 03:47:04;;;;;;;9.48;8.65;;;12.70;99.90;;;;;;5059323;28;20048;-67
2023/08/30 03:49:30;;;;;;;9.00;8.20;;;12.70;99.90;;;;;;5076729;28;20542;-67
2023/08/30 03:51:56;;;;;;;9.60;8.40;;;12.70;99.90;;;;;;5066105;28;20126;-67
2023/08/30 03:54:21;;;;;;;9.30;8.07;;;12.70;99.90;;;;;;5074948;28;20112;-67
2023/08/30 03:56:47;;;;;;;9.20;8.40;;;12.70;99.90;;;;;;5075591;28;20095;-67
2023/08/30 03:59:13;;;;;;;9.45;8.43;;;12.80;99.90;;;;;;5099947;28;20537;-66
2023/08/30 04:01:38;;;;;;;9.13;8.32;;;12.70;99.90;;;;;;5075972;28;20507;-67
2023/08/30 04:04:05;;;;;;;9.38;8.48;;;12.70;99.90;;;;;;5093514;28;20044;-67
2023/08/30 04:06:30;;;;;;;8.82;8.02;;;12.80;99.90;;;;;;5076468;28;20096;-67
2023/08/30 04:08:56;;;;;;;8.73;7.78;;;12.80;99.90;;;;;;5064865;28;20043;-67
2023/08/30 04:11:22;;;;;;;8.75;7.95;;;12.80;99.90;;;;;;5094546;28;20432;-67
2023/08/30 04:13:47;;;;;;;9.55;8.52;;;12.90;99.90;;;;;;5101713;28;20032;-67
2023/08/30 04:16:13;;;;;;;9.63;8.77;;;12.80;99.90;;;;;;5081521;28;20474;-67
2023/08/30 04:18:39;;;;;;;9.43;7.95;;;12.80;99.90;;;;;;5082823;28;20538;-67
2023/08/30 04:21:06;;;;;;;9.60;8.50;;;12.90;99.90;;;;;;5099894;28;20169;-67
2023/08/30 04:23:31;;;;;;;10.20;8.45;;;12.90;99.90;;;;;;5097874;28;20044;-67
2023/08/30 04:25:57;;;;;;;9.15;8.18;;;12.90;99.90;;;;;;5102418;28;20043;-67
2023/08/30 04:28:22;;;;;;;11.73;9.70;;;12.80;99.90;;;;;;5083912;28;20044;-67
2023/08/30 04:30:48;;;;;;;9.10;8.27;;;12.90;99.90;;;;;;5079081;28;20371;-67
2023/08/30 04:33:14;;;;;;;9.38;8.43;;;12.90;99.90;;;;;;5080064;28;20043;-67
2023/08/30 04:35:39;;;;;;;10.20;8.82;;;12.90;99.90;;;;;;5082778;28;20043;-67
2023/08/30 04:38:05;;;;;;;9.95;8.95;;;12.90;99.90;;;;;;5082187;28;20159;-67
2023/08/30 04:40:32;;;;;;;12.07;9.07;;;12.90;99.90;;;;;;5075378;28;20130;-67
2023/08/30 04:42:58;;;;;;;10.60;8.45;;;12.90;99.90;;;;;;5087041;28;20150;-67
2023/08/30 04:45:24;;;;;;;10.35;8.70;;;12.90;99.90;;;;;;5095025;28;20047;-67
2023/08/30 04:47:50;;;;;;;11.18;8.25;;;12.90;99.90;;;;;;5077750;28;20044;-67
2023/08/30 04:50:17;;;;;;;10.13;8.80;;;13.00;99.90;;;;;;5079725;28;20071;-67
2023/08/30 04:52:42;;;;;;;9.75;8.82;;;13.00;99.90;;;;;;5082587;28;20072;-67
2023/08/30 04:55:08;;;;;;;11.13;8.80;;;13.10;99.90;;;;;;5102741;28;20074;-67
2023/08/30 04:57:34;;;;;;;11.63;9.32;;;13.00;99.90;;;;;;5082405;28;20082;-67
2023/08/30 05:00:04;;;;;;;9.60;8.73;;;13.00;99.90;;;;;;5097937;28;20075;-67
2023/08/30 05:02:29;;;;;;;9.85;8.85;;;13.00;99.90;;;;;;5080235;28;20047;-67
2023/08/30 05:04:55;;;;;;;9.40;8.50;;;13.00;99.90;;;;;;5085100;28;20051;-67
2023/08/30 05:07:20;;;;;;;9.57;8.50;;;13.10;99.90;;;;;;5097316;28;20039;-67
2023/08/30 05:09:46;;;;;;;9.63;8.68;;;13.10;99.90;;;;;;5099804;28;20039;-67
2023/08/30 05:12:12;;;;;;;10.15;8.85;;;13.10;99.90;;;;;;5061877;28;20367;-67
2023/08/30 05:14:37;;;;;;;9.90;8.98;;;13.10;99.90;;;;;;5096156;28;20157;-67
2023/08/30 05:17:03;;;;;;;9.85;8.80;;;13.10;99.90;;;;;;5116734;27;20110;-67
2023/08/30 05:19:29;;;;;;;10.40;9.05;;;13.10;99.90;;;;;;5096232;28;20043;-67
2023/08/30 05:21:55;;;;;;;10.38;9.43;;;13.10;99.90;;;;;;5096954;28;20441;-67
2023/08/30 05:24:21;;;;;;;10.85;9.18;;;13.20;99.90;;;;;;5096566;28;20063;-67
2023/08/30 05:26:47;;;;;;;9.68;8.65;;;13.20;99.90;;;;;;5075651;28;20144;-67
2023/08/30 05:29:14;;;;;;;10.50;9.05;;;13.10;99.90;;;;;;5115708;27;20086;-67
2023/08/30 05:31:40;;;;;;;11.60;8.98;;;13.10;99.90;;;;;;5100975;28;21375;-67
2023/08/30 05:34:05;;;;;;;10.30;9.38;;;13.20;99.90;;;;;;5100131;28;20047;-67
2023/08/30 05:36:31;;;;;;;9.85;9.05;;;13.20;99.90;;;;;;5081963;28;20036;-67
2023/08/30 05:38:56;;;;;;;10.35;9.35;;;13.20;99.90;;;;;;5095637;28;20074;-67
2023/08/30 05:41:22;;;;;;;10.32;9.07;;;13.30;99.90;;;;;;5098356;28;20036;-67
2023/08/30 05:43:48;;;;;;;9.23;8.45;;;13.30;99.90;;;;;;5083882;28;20379;-67
2023/08/30 05:46:15;;;;;;;10.40;8.75;;;13.30;99.90;;;;;;5076757;28;20047;-67
2023/08/30 05:48:41;;;;;;;10.02;8.93;;;13.30;99.90;;;;;;5103411;28;20094;-67
2023/08/30 05:51:06;;;;;;;10.85;9.85;;;13.40;99.90;;;;;;5099736;28;20157;-67
2023/08/30 05:53:32;;;;;;;9.40;8.50;;;13.40;99.90;;;;;;5106304;28;20571;-67
2023/08/30 05:55:57;;;;;;;9.15;7.80;;;13.40;99.90;;;;;;5084519;28;20035;-67
2023/08/30 05:58:23;;;;;;;9.73;8.73;;;13.40;99.90;;;;;;5080090;28;20068;-67
2023/08/30 06:00:48;;;;;;;9.57;8.57;;;13.50;99.90;;;;;;5097326;28;20028;-67
2023/08/30 06:03:14;;;;;;;9.90;8.90;;;13.40;99.90;;;;;;5100797;28;20163;-67
2023/08/30 06:05:40;;;;;;;9.77;8.88;;;13.50;99.90;;;;;;5102044;28;20040;-67
2023/08/30 06:08:05;;;;;;;10.60;8.93;;;13.40;99.90;;;;;;5084370;28;20050;-67
2023/08/30 06:10:31;;;;;;;9.18;8.27;;;13.50;99.90;;;;;;5082256;28;20475;-67
2023/08/30 06:12:57;;;;;;;9.77;8.88;;;13.50;99.90;;;;;;5081791;28;20047;-67
2023/08/30 06:15:22;;;;;;;10.98;9.88;;;13.50;99.90;;;;;;5097795;28;20036;-67
2023/08/30 06:17:49;;;;;;;10.75;9.50;;;13.50;99.90;;;;;;5081982;28;20040;-67
2023/08/30 06:20:15;;;;;;;10.98;9.77;;;13.50;99.90;;;;;;5099867;28;20089;-67
2023/08/30 06:22:42;;;;;;;10.45;9.45;;;13.60;99.90;;;;;;5079687;28;20599;-67
2023/08/30 06:25:08;;;;;;;9.52;8.43;;;13.70;99.90;;;;;;5080683;28;20107;-67
2023/08/30 06:27:40;;;;;;;12.52;9.70;;;13.80;99.90;;;;;;5115794;27;20039;-67
2023/08/30 06:30:07;;;;;;;12.52;9.77;;;13.80;99.90;;;;;;5097027;28;20121;-67
2023/08/30 06:32:33;;;;;;;10.90;9.23;;;13.80;99.90;;;;;;5096109;28;20031;-67
2023/08/30 06:34:59;;;;;;;11.95;9.77;;;13.90;99.90;;;;;;5084151;28;20062;-67
2023/08/30 06:37:24;;;;;;;10.38;8.75;;;13.90;99.90;;;;;;5103633;28;20043;-67
2023/08/30 06:39:50;;;;;;;11.10;9.95;;;14.00;99.90;;;;;;5083929;28;20466;-67
2023/08/30 06:42:16;;;;;;;11.65;9.38;;;14.10;99.90;;;;;;5095333;28;20460;-67
2023/08/30 06:44:41;;;;;;;13.80;9.70;;;14.10;99.90;;;;;;5082823;28;20054;-67
2023/08/30 06:47:07;;;;;;;10.50;9.13;;;14.20;99.90;;;;;;5096926;28;20054;-67
2023/08/30 06:49:33;;;;;;;11.98;8.98;;;14.20;99.90;;;;;;5099694;28;20409;-67
2023/08/30 06:52:03;;;;;;;9.38;8.57;;;14.20;99.90;;;;;;5068480;28;20090;-67
2023/08/30 06:54:30;;;;;;;11.88;9.70;;;14.20;99.90;;;;;;5075757;28;20470;-67
2023/08/30 06:57:00;;;;;;;9.73;8.73;;;14.20;99.90;;;;;;5096230;28;20050;-67
2023/08/30 06:59:26;;;;;;;11.65;9.65;;;14.30;99.90;;;;;;5094334;28;20442;-67
2023/08/30 07:01:52;;;;;;;10.02;9.07;;;14.30;99.90;;;;;;5098420;28;20118;-68
2023/08/30 07:04:17;;;;;;;10.82;9.05;;;14.30;99.90;;;;;;5082816;28;20118;-68
2023/08/30 07:06:43;;;;;;;9.27;8.43;;;14.40;99.90;;;;;;5090797;28;20109;-68
2023/08/30 07:09:09;;;;;;;9.40;8.55;;;14.40;99.90;;;;;;5097167;28;20490;-68
2023/08/30 07:11:34;;;;;;;9.57;8.68;;;14.50;99.90;;;;;;5101430;28;20047;-68
2023/08/30 07:14:00;;;;;;;9.73;8.80;;;14.60;99.90;;;;;;5092891;28;20032;-68
2023/08/30 07:16:26;;;;;;;10.20;9.25;;;14.60;99.90;;;;;;5092780;28;20035;-68
2023/08/30 07:18:51;;;;;;;11.27;9.13;;;14.60;99.90;;;;;;5097805;28;20036;-68
2023/08/30 07:21:17;;;;;;;9.68;8.07;;;14.70;99.90;;;;;;5076695;28;20043;-68
2023/08/30 07:23:44;;;;;;;9.45;8.13;;;14.80;99.90;;;;;;5096229;28;20421;-68
2023/08/30 07:26:09;;;;;;;9.18;8.23;;;14.90;99.90;;;;;;5090734;28;20099;-67
2023/08/30 07:28:35;;;;;;;9.60;8.70;;;14.90;99.90;;;;;;5073159;28;20075;-67
2023/08/30 07:31:04;;;;;;;8.77;7.88;;;14.90;99.90;;;;;;5091126;28;20050;-68
2023/08/30 07:33:30;;;;;;;11.52;9.00;;;15.00;99.90;;;;;;5077413;28;20044;-68
2023/08/30 07:35:56;;;;;;;9.40;8.50;;;15.10;99.90;;;;;;5079496;28;20063;-68
2023/08/30 07:38:21;;;;;;;9.80;8.23;;;15.30;99.90;;;;;;5079916;28;20039;-68
2023/08/30 07:40:47;;;;;;;9.52;8.45;;;15.40;99.90;;;;;;5095497;28;20040;-68
2023/08/30 07:43:13;;;;;;;7.82;7.07;;;15.50;99.90;;;;;;5079405;28;20054;-68
2023/08/30 07:45:39;;;;;;;8.40;7.28;;;15.60;99.90;;;;;;5096387;28;20035;-68
2023/08/30 07:48:05;;;;;;;8.55;7.65;;;15.70;99.90;;;;;;5096011;28;20040;-68
2023/08/30 07:50:30;;;;;;;8.80;8.00;;;15.70;99.90;;;;;;5095523;28;20067;-67
2023/08/30 07:52:56;;;;;;;10.48;8.52;;;15.90;99.90;;;;;;5094628;28;20374;-68
2023/08/30 07:55:21;;;;;;;9.10;8.07;;;16.00;99.90;;;;;;5095756;28;20036;-68
2023/08/30 07:57:47;;;;;;;10.60;8.00;;;16.10;99.90;;;;;;5079161;28;20028;-68
2023/08/30 08:00:13;;;;;;;13.27;8.98;;;16.20;99.90;;;;;;5076396;28;20043;-68
2023/08/30 08:02:40;;;;;;;10.77;8.32;;;16.30;99.90;;;;;;5079491;28;20036;-68
2023/08/30 08:05:06;;;;;;;13.60;9.80;;;16.30;99.90;;;;;;5106189;27;20047;-68
2023/08/30 08:07:32;;;;;;;10.15;8.77;;;16.30;99.90;;;;;;5092611;28;20108;-68
2023/08/30 08:09:58;;;;;;;11.00;9.98;;;16.40;99.90;;;;;;5092601;28;20524;-68
2023/08/30 08:12:24;;;;;;;10.50;8.00;;;16.50;99.90;;;;;;5076773;28;20035;-68
2023/08/30 08:14:49;;;;;;;9.25;8.25;;;16.50;99.90;;;;;;5095634;28;20402;-68
2023/08/30 08:17:15;;;;;;;11.65;9.45;;;16.50;99.90;;;;;;5097995;28;20047;-68
2023/08/30 08:19:42;;;;;;;9.25;8.35;;;16.50;99.90;;;;;;5095141;28;20536;-69
2023/08/30 08:22:08;;;;;;;9.43;8.60;;;16.50;99.90;;;;;;5077628;28;20048;-69
2023/08/30 08:24:34;;;;;;;8.88;7.97;;;16.50;99.90;;;;;;5077992;28;20406;-67
2023/08/30 08:27:01;;;;;;;12.23;9.18;;;16.50;99.90;;;;;;5071473;28;20047;-66
2023/08/30 08:29:28;;;;;;;11.52;9.30;;;16.50;99.90;;;;;;5077447;28;20048;-69
2023/08/30 08:31:54;;;;;;;12.80;9.63;;;16.40;99.90;;;;;;5098643;28;20032;-70
2023/08/30 08:34:19;;;;;;;12.70;9.23;;;16.50;99.90;;;;;;5096646;28;20040;-71
2023/08/30 08:36:45;;;;;;;11.65;8.55;;;16.40;99.90;;;;;;5076700;28;20479;-71
2023/08/30 08:39:11;;;;;;;10.60;9.60;;;16.40;99.90;;;;;;5077875;28;20044;-72
2023/08/30 08:41:41;;;;;;;10.35;9.35;;;16.40;99.90;;;;;;5079879;28;20081;-70
2023/08/30 08:44:08;;;;;;;9.98;8.90;;;16.40;99.90;;;;;;5096181;28;20127;-72
2023/08/30 08:46:38;;;;;;;10.60;9.48;;;16.40;99.90;;;;;;5082292;28;20050;-75
2023/08/30 08:49:17;;;;;;;10.65;8.90;;;16.40;99.90;;;;;;5088136;28;20032;-69
2023/08/30 08:51:43;;;;;;;11.18;8.95;;;16.40;99.90;;;;;;5082664;28;20075;-68
2023/08/30 08:54:10;;;;;;;12.65;8.77;;;16.40;99.90;;;;;;5102764;28;20040;-70
2023/08/30 08:56:36;;;;;;;13.98;8.40;;;16.30;99.90;;;;;;5075857;28;20119;-69
2023/08/30 08:59:02;;;;;;;13.25;8.40;;;16.20;99.90;;;;;;5103862;28;20032;-67
2023/08/30 09:01:28;;;;;;;9.98;8.10;;;16.20;99.90;;;;;;5100568;28;20543;-68
2023/08/30 09:03:54;;;;;;;11.75;7.70;;;16.10;99.90;;;;;;5095197;28;20035;-69
2023/08/30 09:06:21;;;;;;;7.88;7.18;;;16.10;99.90;;;;;;5060127;28;20071;-69
2023/08/30 09:08:47;;;;;;;12.07;8.30;;;16.00;99.90;;;;;;5081639;28;20050;-69
2023/08/30 09:11:13;;;;;;;11.73;8.07;;;16.00;99.90;;;;;;5097826;28;20036;-70
2023/08/30 09:13:39;;;;;;;11.35;8.00;;;16.10;99.90;;;;;;5095411;28;20032;-69
2023/08/30 09:16:14;;;;;;;8.25;7.45;;;15.90;99.90;;;;;;5093561;28;20044;-69
2023/08/30 09:18:41;;;;;;;9.63;8.70;;;15.90;99.90;;;;;;5095992;28;20552;-69
2023/08/30 09:21:07;;;;;;;11.23;8.07;;;15.80;99.90;;;;;;5095825;28;20039;-69
2023/08/30 09:23:36;;;;;;;12.70;8.38;;;15.80;99.90;;;;;;5099474;28;20097;-69
2023/08/30 09:26:02;;;;;;;11.82;8.82;;;15.70;99.90;;;;;;5079606;28;20051;-69
2023/08/30 09:28:28;;;;;;;9.07;8.23;;;15.60;99.90;;;;;;5064382;28;20044;-69
2023/08/30 09:30:54;;;;;;;8.35;7.55;;;15.60;99.90;;;;;;5093821;28;20048;-70
2023/08/30 09:33:29;;;;;;;12.98;8.20;;;15.60;99.90;;;;;;5080445;28;20380;-70
2023/08/30 09:35:55;;;;;;;9.93;8.97;;;15.50;99.90;;;;;;5074922;28;20043;-71
2023/08/30 09:38:20;;;;;;;14.15;9.75;;;15.50;99.90;;;;;;5099645;28;20039;-71
2023/08/30 09:40:46;;;;;;;10.73;8.82;;;15.50;99.90;;;;;;5082726;28;20038;-71
2023/08/30 09:43:13;;;;;;;10.10;8.38;;;15.50;99.90;;;;;;5099663;28;20085;-69
2023/08/30 09:45:39;;;;;;;10.45;8.98;;;15.50;99.90;;;;;;5094878;28;20036;-70
2023/08/30 09:48:08;;;;;;;9.68;8.68;;;15.50;99.90;;;;;;5099214;28;20675;-70
2023/08/30 09:50:35;;;;;;;10.30;8.38;;;15.50;99.90;;;;;;5098117;28;20504;-70
2023/08/30 09:53:09;;;;;;;8.30;7.40;;;15.50;99.90;;;;;;5100159;28;20070;-70
2023/08/30 09:55:35;;;;;;;8.20;7.35;;;15.50;99.90;;;;;;5111005;27;20065;-70
2023/08/30 09:58:04;;;;;;;9.60;8.25;;;15.50;99.90;;;;;;5093054;28;20127;-70
2023/08/30 10:00:36;;;;;;;9.30;8.27;;;15.60;99.90;;;;;;5091027;28;20040;-70
2023/08/30 10:03:02;;;;;;;9.10;8.15;;;15.70;99.90;;;;;;5095890;28;20028;-70
2023/08/30 10:05:29;;;;;;;8.98;8.13;;;15.70;99.90;;;;;;5080104;28;20044;-70
2023/08/30 10:07:56;;;;;;;8.90;7.57;;;15.90;99.90;;;;;;5074194;28;20041;-69
2023/08/30 10:10:23;;;;;;;8.65;7.75;;;16.00;99.90;;;;;;5099001;28;20051;-70
2023/08/30 10:12:50;;;;;;;9.02;8.13;;;16.20;99.90;;;;;;5096097;28;20035;-66
2023/08/30 10:15:16;;;;;;;10.10;6.85;;;16.30;99.90;;;;;;5098439;28;20055;-69
2023/08/30 10:17:46;;;;;;;7.43;6.70;;;16.40;99.90;;;;;;5078735;28;21547;-68
2023/08/30 10:20:15;;;;;;;6.97;6.35;;;16.40;99.90;;;;;;5074081;28;20048;-68
2023/08/30 10:22:42;;;;;;;7.43;5.47;;;16.50;99.90;;;;;;5108998;27;20092;-70
2023/08/30 10:25:16;;;;;;;5.95;5.35;;;16.60;99.90;;;;;;5098231;28;20047;-69
2023/08/30 10:27:46;;;;;;;6.03;5.50;;;16.60;99.90;;;;;;5098496;28;20051;-66
2023/08/30 10:30:13;;;;;;;6.75;5.80;;;16.80;99.90;;;;;;5098900;28;20036;-67
2023/08/30 10:32:42;;;;;;;7.15;6.30;;;16.80;99.90;;;;;;5098403;28;20397;-67
2023/08/30 10:35:13;;;;;;;7.05;6.35;;;16.80;99.90;;;;;;5075756;28;20040;-68
2023/08/30 10:37:39;;;;;;;8.13;6.65;;;16.80;99.90;;;;;;5080441;28;20118;-68
2023/08/30 10:40:05;;;;;;;9.05;6.80;;;16.80;99.90;;;;;;5110344;27;20131;-66
2023/08/30 10:42:32;;;;;;;7.07;6.43;;;16.70;99.90;;;;;;5096661;28;20071;-68
2023/08/30 10:44:59;;;;;;;8.93;6.28;;;16.60;99.90;;;;;;5112690;27;20071;-66
2023/08/30 10:47:28;;;;;;;7.00;6.22;;;16.50;99.90;;;;;;5075542;28;20036;-67
2023/08/30 10:49:55;;;;;;;7.93;6.80;;;16.40;99.90;;;;;;5077894;28;20763;-68
2023/08/30 10:52:21;;;;;;;6.88;6.28;;;16.40;99.90;;;;;;5098115;28;20119;-69
2023/08/30 10:54:46;;;;;;;7.47;6.00;;;16.20;99.90;;;;;;5066137;28;20497;-67
2023/08/30 10:57:14;;;;;;;6.50;5.90;;;16.10;99.90;;;;;;5097958;28;20078;-67
2023/08/30 10:59:40;;;;;;;6.40;5.78;;;16.00;99.90;;;;;;5094940;28;20122;-67
2023/08/30 11:02:06;;;;;;;6.47;5.88;;;15.90;99.90;;;;;;5114144;27;20040;-67
2023/08/30 11:04:32;;;;;;;6.30;5.70;;;15.90;99.90;;;;;;5079869;28;20051;-67
2023/08/30 11:06:58;;;;;;;6.10;4.95;;;15.80;99.90;;;;;;5076468;28;20047;-67
2023/08/30 11:09:24;;;;;;;6.80;6.10;;;16.00;99.90;;;;;;5077584;28;20398;-67
2023/08/30 11:11:51;;;;;;;6.82;6.13;;;15.70;99.90;;;;;;5109057;27;20047;-67
2023/08/30 11:14:18;;;;;;;6.97;6.28;;;15.80;99.90;;;;;;5098263;28;20063;-67
2023/08/30 11:16:44;;;;;;;6.95;6.35;;;15.80;99.90;;;;;;5094364;28;20490;-67
2023/08/30 11:19:11;;;;;;;6.63;6.03;;;15.80;99.90;;;;;;5079237;28;20475;-67
2023/08/30 11:21:43;;;;;;;8.00;7.00;;;15.80;99.90;;;;;;5095447;28;20405;-67
2023/08/30 11:24:09;;;;;;;6.32;5.80;;;15.80;99.90;;;;;;5079085;28;20039;-67
2023/08/30 11:26:35;;;;;;;6.68;6.07;;;15.70;99.90;;;;;;5065608;28;20437;-70
2023/08/30 11:29:05;;;;;;;7.32;6.63;;;15.60;99.90;;;;;;5093130;28;20040;-67
2023/08/30 11:34:23;;;;;;;;;;;15.60;99.90;;;;;;5097379;27;20397;-65
2023/08/30 11:36:50;;;;;;;8.10;6.03;;;15.60;99.90;;;;;;5096089;28;20378;-64
2023/08/30 11:39:16;;;;;;;10.00;6.00;;;15.60;99.90;;;;;;5100340;28;20039;-64
2023/08/30 11:41:43;;;;;;;8.13;6.53;;;15.60;99.90;;;;;;5097875;28;20040;-65
2023/08/30 11:44:09;;;;;;;7.32;6.63;;;15.60;99.90;;;;;;5097514;28;20029;-65
2023/08/30 11:46:35;;;;;;;7.30;6.60;;;15.60;99.90;;;;;;5096766;28;20051;-65
2023/08/30 11:49:02;;;;;;;6.18;5.68;;;15.50;99.90;;;;;;5095700;28;20032;-65
2023/08/30 11:51:29;;;;;;;7.95;6.35;;;15.60;99.90;;;;;;5093657;28;20093;-66
2023/08/30 11:53:55;;;;;;;7.57;6.88;;;15.60;99.90;;;;;;5098042;28;20117;-66
2023/08/30 11:56:22;;;;;;;7.20;6.47;;;15.60;99.90;;;;;;5094950;28;20505;-63
2023/08/30 11:58:48;;;;;;;8.25;7.45;;;15.60;99.90;;;;;;5097381;28;20039;-63
2023/08/30 12:01:14;;;;;;;9.57;7.93;;;15.70;99.90;;;;;;5095482;28;20040;-64
2023/08/30 12:03:40;;;;;;;7.32;6.57;;;15.70;99.90;;;;;;5094763;28;20043;-63
2023/08/30 12:06:14;;;;;;;8.73;7.18;;;15.70;99.90;;;;;;5096443;28;20548;-66
2023/08/30 12:08:40;;;;;;;7.57;6.88;;;15.70;99.90;;;;;;5092195;28;20036;-66
2023/08/30 12:11:06;;;;;;;6.03;5.53;;;15.70;99.90;;;;;;5094442;28;20085;-66
2023/08/30 12:13:33;;;;;;;6.13;5.60;;;15.70;99.90;;;;;;5096753;28;20032;-65
2023/08/30 12:23:05;;;;;;;6.80;5.55;;;15.80;99.90;;;;;;5101321;27;20728;-65
2023/08/30 12:25:32;;;;;;;5.93;5.53;;;15.80;99.90;;;;;;5088271;28;20109;-65
2023/08/30 12:27:57;;;;;;;5.30;4.90;;;15.80;99.90;;;;;;5088538;28;20099;-63
2023/08/30 12:30:23;;;;;;;5.82;5.32;;;15.80;99.90;;;;;;5121593;27;20047;-64
2023/08/30 12:32:49;;;;;;;6.90;6.20;;;15.80;99.90;;;;;;5089072;28;20041;-65
2023/08/30 12:35:15;;;;;;;6.07;5.60;;;15.90;99.90;;;;;;5089325;28;20076;-65
2023/08/30 12:37:40;;;;;;;5.65;4.80;;;15.90;99.90;;;;;;5086500;28;20044;-65
2023/08/30 21:00:58;;;;;;;3.10;0.73;;;12.70;99.90;;;;;;6112518;23;1214528;-66
2023/08/30 21:03:24;;;;;;;2.33;0.65;;;12.70;99.90;;;;;;6091491;23;20026;-66
2023/08/30 21:05:51;;;;;;;5.15;0.80;;;12.70;99.90;;;;;;6116924;23;20020;-66
2023/08/30 21:08:26;;;;;;;3.47;0.60;;;12.60;99.90;;;;;;6093016;23;20475;-66
2023/08/30 21:25:50;;;;;;;3.58;1.30;;;12.40;99.90;;;;;;6119884;23;20022;-66